sensor_id;sensor_type;location;lat;lon;timestamp;pressure;altitude;pressure_sealevel;temperature;humidity
50867;BME280;36839;51.946;21.002;2022-11-20T00:01:45;100017.31;;;-7.02;98.55
50867;BME280;36839;51.946;21.002;2022-11-20T00:04:11;100004.89;;;-7.07;98.59
50867;BME280;36839;51.946;21.002;2022-11-20T00:06:38;100014.28;;;-7.07;98.87
50867;BME280;36839;51.946;21.002;2022-11-20T00:09:04;100011.94;;;-7.10;99.05
50867;BME280;36839;51.946;21.002;2022-11-20T00:11:32;100006.06;;;-7.09;99.16
50867;BME280;36839;51.946;21.002;2022-11-20T00:14:00;100003.72;;;-7.08;99.13
50867;BME280;36839;51.946;21.002;2022-11-20T00:16:30;100002.84;;;-7.13;99.38
50867;BME280;36839;51.946;21.002;2022-11-20T00:18:58;99997.14;;;-7.14;99.44
50867;BME280;36839;51.946;21.002;2022-11-20T00:21:28;99998.31;;;-7.16;99.32
50867;BME280;36839;51.946;21.002;2022-11-20T00:23:55;100004.19;;;-7.13;99.26
50867;BME280;36839;51.946;21.002;2022-11-20T00:26:24;100004.19;;;-7.13;99.26
50867;BME280;36839;51.946;21.002;2022-11-20T00:28:52;99999.16;;;-7.16;99.17
50867;BME280;36839;51.946;21.002;2022-11-20T00:31:19;99999.16;;;-7.16;99.17
50867;BME280;36839;51.946;21.002;2022-11-20T00:33:46;100004.86;;;-7.19;99.28
50867;BME280;36839;51.946;21.002;2022-11-20T00:36:15;100004.86;;;-7.19;99.28
50867;BME280;36839;51.946;21.002;2022-11-20T00:38:42;99994.92;;;-7.27;99.39
50867;BME280;36839;51.946;21.002;2022-11-20T00:41:11;99994.92;;;-7.27;99.39
50867;BME280;36839;51.946;21.002;2022-11-20T00:43:37;99994.25;;;-7.29;99.26
50867;BME280;36839;51.946;21.002;2022-11-20T00:46:09;99995.89;;;-7.32;98.95
50867;BME280;36839;51.946;21.002;2022-11-20T00:48:36;99994.05;;;-7.31;98.84
50867;BME280;36839;51.946;21.002;2022-11-20T00:51:02;99988.84;;;-7.33;98.69
50867;BME280;36839;51.946;21.002;2022-11-20T00:53:29;99988.52;;;-7.34;98.75
50867;BME280;36839;51.946;21.002;2022-11-20T00:55:57;99980.80;;;-7.37;98.73
50867;BME280;36839;51.946;21.002;2022-11-20T00:58:25;99980.80;;;-7.37;98.73
50867;BME280;36839;51.946;21.002;2022-11-20T01:00:52;99970.87;;;-7.40;98.69
50867;BME280;36839;51.946;21.002;2022-11-20T01:03:20;99977.91;;;-7.43;98.78
50867;BME280;36839;51.946;21.002;2022-11-20T01:05:46;99977.91;;;-7.43;98.78
50867;BME280;36839;51.946;21.002;2022-11-20T01:08:12;99978.70;;;-7.55;98.91
50867;BME280;36839;51.946;21.002;2022-11-20T01:10:38;99972.29;;;-7.58;98.82
50867;BME280;36839;51.946;21.002;2022-11-20T01:13:05;99967.59;;;-7.60;98.87
50867;BME280;36839;51.946;21.002;2022-11-20T01:15:50;99959.88;;;-7.67;98.94
50867;BME280;36839;51.946;21.002;2022-11-20T01:18:18;99958.99;;;-7.72;99.05
50867;BME280;36839;51.946;21.002;2022-11-20T01:20:45;99964.02;;;-7.73;99.23
50867;BME280;36839;51.946;21.002;2022-11-20T01:23:11;99964.02;;;-7.73;99.23
50867;BME280;36839;51.946;21.002;2022-11-20T01:25:37;99958.77;;;-7.83;99.21
50867;BME280;36839;51.946;21.002;2022-11-20T01:28:03;99957.78;;;-7.78;99.34
50867;BME280;36839;51.946;21.002;2022-11-20T01:30:30;99959.11;;;-7.82;99.28
50867;BME280;36839;51.946;21.002;2022-11-20T01:32:56;99957.77;;;-7.82;99.27
50867;BME280;36839;51.946;21.002;2022-11-20T01:35:22;99962.62;;;-7.85;99.19
50867;BME280;36839;51.946;21.002;2022-11-20T01:37:50;99964.09;;;-7.87;99.16
50867;BME280;36839;51.946;21.002;2022-11-20T01:40:18;99964.25;;;-7.88;99.28
50867;BME280;36839;51.946;21.002;2022-11-20T01:42:52;99957.05;;;-7.88;99.36
50867;BME280;36839;51.946;21.002;2022-11-20T01:51:06;99951.56;;;-7.82;99.51
50867;BME280;36839;51.946;21.002;2022-11-20T01:53:35;99946.38;;;-7.80;99.55
50867;BME280;36839;51.946;21.002;2022-11-20T01:56:05;99947.55;;;-7.82;99.46
50867;BME280;36839;51.946;21.002;2022-11-20T01:58:35;99949.72;;;-7.86;99.32
50867;BME280;36839;51.946;21.002;2022-11-20T02:01:03;99945.31;;;-7.91;99.27
50867;BME280;36839;51.946;21.002;2022-11-20T02:03:30;99952.14;;;-7.96;99.04
50867;BME280;36839;51.946;21.002;2022-11-20T02:06:16;99944.25;;;-8.02;99.26
50867;BME280;36839;51.946;21.002;2022-11-20T02:08:42;99954.98;;;-7.98;99.35
50867;BME280;36839;51.946;21.002;2022-11-20T02:11:08;99949.95;;;-7.97;99.51
50867;BME280;36839;51.946;21.002;2022-11-20T02:13:37;99952.51;;;-7.95;99.49
50867;BME280;36839;51.946;21.002;2022-11-20T02:16:12;99945.98;;;-7.93;99.58
50867;BME280;36839;51.946;21.002;2022-11-20T02:18:39;99939.95;;;-7.91;99.81
50867;BME280;36839;51.946;21.002;2022-11-20T02:24:12;99933.64;;;-7.82;100.00
50867;BME280;36839;51.946;21.002;2022-11-20T02:27:03;99941.06;;;-7.75;100.00
50867;BME280;36839;51.946;21.002;2022-11-20T02:32:19;99938.89;;;-7.68;100.00
50867;BME280;36839;51.946;21.002;2022-11-20T02:34:46;99939.31;;;-7.55;100.00
50867;BME280;36839;51.946;21.002;2022-11-20T02:37:14;99945.68;;;-7.52;100.00
50867;BME280;36839;51.946;21.002;2022-11-20T02:39:40;99945.34;;;-7.49;100.00
50867;BME280;36839;51.946;21.002;2022-11-20T02:42:07;99945.34;;;-7.49;100.00
50867;BME280;36839;51.946;21.002;2022-11-20T02:44:33;99932.44;;;-7.49;100.00
50867;BME280;36839;51.946;21.002;2022-11-20T02:47:00;99938.17;;;-7.44;100.00
50867;BME280;36839;51.946;21.002;2022-11-20T02:49:26;99947.39;;;-7.42;100.00
50867;BME280;36839;51.946;21.002;2022-11-20T02:51:52;99948.23;;;-7.46;100.00
50867;BME280;36839;51.946;21.002;2022-11-20T02:54:19;99953.27;;;-7.47;100.00
50867;BME280;36839;51.946;21.002;2022-11-20T02:56:46;99946.69;;;-7.49;100.00
50867;BME280;36839;51.946;21.002;2022-11-20T02:59:12;99947.69;;;-7.54;100.00
50867;BME280;36839;51.946;21.002;2022-11-20T03:01:38;99951.05;;;-7.52;100.00
50867;BME280;36839;51.946;21.002;2022-11-20T03:04:04;99948.53;;;-7.53;100.00
50867;BME280;36839;51.946;21.002;2022-11-20T03:06:31;99948.70;;;-7.55;100.00
50867;BME280;36839;51.946;21.002;2022-11-20T03:08:58;99952.38;;;-7.56;100.00
50867;BME280;36839;51.946;21.002;2022-11-20T03:11:25;99950.37;;;-7.58;100.00
50867;BME280;36839;51.946;21.002;2022-11-20T03:13:52;99950.37;;;-7.58;100.00
50867;BME280;36839;51.946;21.002;2022-11-20T03:16:23;99943.62;;;-7.62;100.00
50867;BME280;36839;51.946;21.002;2022-11-20T03:18:51;99943.62;;;-7.62;100.00
50867;BME280;36839;51.946;21.002;2022-11-20T03:21:18;99937.75;;;-7.65;100.00
50867;BME280;36839;51.946;21.002;2022-11-20T03:23:44;99936.91;;;-7.66;100.00
50867;BME280;36839;51.946;21.002;2022-11-20T03:26:22;99936.91;;;-7.66;100.00
50867;BME280;36839;51.946;21.002;2022-11-20T03:28:51;99939.89;;;-7.69;100.00
50867;BME280;36839;51.946;21.002;2022-11-20T03:31:21;99932.17;;;-7.76;100.00
50867;BME280;36839;51.946;21.002;2022-11-20T03:33:48;99932.17;;;-7.76;100.00
50867;BME280;36839;51.946;21.002;2022-11-20T03:36:16;99940.13;;;-7.88;100.00
50867;BME280;36839;51.946;21.002;2022-11-20T03:38:43;99940.62;;;-7.93;100.00
50867;BME280;36839;51.946;21.002;2022-11-20T03:41:17;99938.73;;;-7.96;100.00
50867;BME280;36839;51.946;21.002;2022-11-20T03:43:52;99933.69;;;-8.03;100.00
50867;BME280;36839;51.946;21.002;2022-11-20T03:46:15;99936.03;;;-8.04;100.00
50867;BME280;36839;51.946;21.002;2022-11-20T03:48:41;99933.81;;;-8.09;100.00
50867;BME280;36839;51.946;21.002;2022-11-20T03:51:12;99933.81;;;-8.09;100.00
50867;BME280;36839;51.946;21.002;2022-11-20T03:53:40;99938.45;;;-8.15;100.00
50867;BME280;36839;51.946;21.002;2022-11-20T03:56:08;99941.79;;;-8.17;100.00
50867;BME280;36839;51.946;21.002;2022-11-20T03:58:37;99945.31;;;-8.17;100.00
50867;BME280;36839;51.946;21.002;2022-11-20T04:03:35;99940.09;;;-8.22;100.00
50867;BME280;36839;51.946;21.002;2022-11-20T04:06:10;99938.55;;;-8.25;100.00
50867;BME280;36839;51.946;21.002;2022-11-20T04:08:38;99937.58;;;-8.24;100.00
50867;BME280;36839;51.946;21.002;2022-11-20T04:11:18;99940.21;;;-8.28;100.00
50867;BME280;36839;51.946;21.002;2022-11-20T04:13:56;99939.94;;;-8.21;100.00
50867;BME280;36839;51.946;21.002;2022-11-20T04:16:24;99939.94;;;-8.21;100.00
50867;BME280;36839;51.946;21.002;2022-11-20T04:18:59;99931.23;;;-8.19;100.00
50867;BME280;36839;51.946;21.002;2022-11-20T04:21:26;99933.91;;;-8.19;100.00
50867;BME280;36839;51.946;21.002;2022-11-20T04:23:54;99925.87;;;-8.19;100.00
50867;BME280;36839;51.946;21.002;2022-11-20T04:26:27;99927.73;;;-8.15;100.00
50867;BME280;36839;51.946;21.002;2022-11-20T04:28:54;99926.89;;;-8.16;100.00
50867;BME280;36839;51.946;21.002;2022-11-20T04:31:23;99927.05;;;-8.17;100.00
50867;BME280;36839;51.946;21.002;2022-11-20T04:33:50;99922.70;;;-8.18;100.00
50867;BME280;36839;51.946;21.002;2022-11-20T04:36:19;99920.02;;;-8.18;100.00
50867;BME280;36839;51.946;21.002;2022-11-20T04:38:46;99907.78;;;-8.21;100.00
50867;BME280;36839;51.946;21.002;2022-11-20T04:41:18;99904.94;;;-8.23;100.00
50867;BME280;36839;51.946;21.002;2022-11-20T04:43:50;99904.44;;;-8.19;100.00
50867;BME280;36839;51.946;21.002;2022-11-20T04:46:18;99905.44;;;-8.24;100.00
50867;BME280;36839;51.946;21.002;2022-11-20T04:48:46;99896.35;;;-8.27;100.00
50867;BME280;36839;51.946;21.002;2022-11-20T04:51:13;99896.35;;;-8.27;100.00
50867;BME280;36839;51.946;21.002;2022-11-20T04:53:40;99897.02;;;-8.29;100.00
50867;BME280;36839;51.946;21.002;2022-11-20T04:56:08;99896.34;;;-8.31;100.00
50867;BME280;36839;51.946;21.002;2022-11-20T04:58:34;99892.66;;;-8.30;100.00
50867;BME280;36839;51.946;21.002;2022-11-20T05:01:20;99888.59;;;-8.34;100.00
50867;BME280;36839;51.946;21.002;2022-11-20T05:03:49;99888.59;;;-8.34;100.00
50867;BME280;36839;51.946;21.002;2022-11-20T05:06:19;99887.44;;;-8.40;100.00
50867;BME280;36839;51.946;21.002;2022-11-20T05:08:45;99886.27;;;-8.41;100.00
50867;BME280;36839;51.946;21.002;2022-11-20T05:11:17;99881.86;;;-8.46;100.00
50867;BME280;36839;51.946;21.002;2022-11-20T05:13:44;99882.36;;;-8.47;100.00
50867;BME280;36839;51.946;21.002;2022-11-20T05:16:17;99880.56;;;-8.42;100.00
50867;BME280;36839;51.946;21.002;2022-11-20T05:18:41;99880.56;;;-8.42;100.00
50867;BME280;36839;51.946;21.002;2022-11-20T05:21:09;99888.59;;;-8.42;100.00
50867;BME280;36839;51.946;21.002;2022-11-20T05:23:36;99890.89;;;-8.47;100.00
50867;BME280;36839;51.946;21.002;2022-11-20T05:26:03;99887.48;;;-8.53;100.00
50867;BME280;36839;51.946;21.002;2022-11-20T05:28:31;99887.97;;;-8.58;100.00
50867;BME280;36839;51.946;21.002;2022-11-20T05:31:09;99892.72;;;-8.52;100.00
50867;BME280;36839;51.946;21.002;2022-11-20T05:33:36;99892.72;;;-8.52;100.00
50867;BME280;36839;51.946;21.002;2022-11-20T05:36:03;99891.55;;;-8.49;100.00
50867;BME280;36839;51.946;21.002;2022-11-20T05:38:30;99891.55;;;-8.49;100.00
50867;BME280;36839;51.946;21.002;2022-11-20T05:41:11;99882.70;;;-8.46;100.00
50867;BME280;36839;51.946;21.002;2022-11-20T05:43:39;99880.23;;;-8.43;100.00
50867;BME280;36839;51.946;21.002;2022-11-20T05:46:09;99877.39;;;-8.42;100.00
50867;BME280;36839;51.946;21.002;2022-11-20T05:48:35;99877.39;;;-8.42;100.00
50867;BME280;36839;51.946;21.002;2022-11-20T05:51:04;99872.33;;;-8.45;100.00
50867;BME280;36839;51.946;21.002;2022-11-20T05:53:32;99862.60;;;-8.50;100.00
50867;BME280;36839;51.946;21.002;2022-11-20T05:56:10;99862.60;;;-8.50;100.00
50867;BME280;36839;51.946;21.002;2022-11-20T05:58:37;99872.13;;;-8.51;100.00
50867;BME280;36839;51.946;21.002;2022-11-20T06:01:12;99874.81;;;-8.51;100.00
50867;BME280;36839;51.946;21.002;2022-11-20T06:03:40;99874.10;;;-8.53;100.00
50867;BME280;36839;51.946;21.002;2022-11-20T06:06:08;99876.44;;;-8.54;100.00
50867;BME280;36839;51.946;21.002;2022-11-20T06:08:35;99876.44;;;-8.54;100.00
50867;BME280;36839;51.946;21.002;2022-11-20T06:11:06;99870.33;;;-8.69;100.00
50867;BME280;36839;51.946;21.002;2022-11-20T06:13:33;99861.41;;;-8.73;100.00
50867;BME280;36839;51.946;21.002;2022-11-20T06:16:00;99871.33;;;-8.70;100.00
50867;BME280;36839;51.946;21.002;2022-11-20T06:18:27;99871.48;;;-8.71;100.00
50867;BME280;36839;51.946;21.002;2022-11-20T06:21:15;99878.36;;;-8.69;100.00
50867;BME280;36839;51.946;21.002;2022-11-20T06:23:42;99872.84;;;-8.67;100.00
50867;BME280;36839;51.946;21.002;2022-11-20T06:26:13;99870.00;;;-8.66;100.00
50867;BME280;36839;51.946;21.002;2022-11-20T06:28:40;99871.52;;;-8.63;100.00
50867;BME280;36839;51.946;21.002;2022-11-20T06:31:07;99874.25;;;-8.59;100.00
50867;BME280;36839;51.946;21.002;2022-11-20T06:33:35;99863.54;;;-8.59;100.00
50867;BME280;36839;51.946;21.002;2022-11-20T06:36:04;99863.54;;;-8.59;100.00
50867;BME280;36839;51.946;21.002;2022-11-20T06:38:30;99859.75;;;-8.52;100.00
50867;BME280;36839;51.946;21.002;2022-11-20T06:40:57;99859.26;;;-8.48;100.00
50867;BME280;36839;51.946;21.002;2022-11-20T06:43:23;99859.26;;;-8.48;100.00
50867;BME280;36839;51.946;21.002;2022-11-20T06:45:55;99853.45;;;-8.43;100.00
50867;BME280;36839;51.946;21.002;2022-11-20T06:48:26;99853.98;;;-8.31;100.00
50867;BME280;36839;51.946;21.002;2022-11-20T06:50:52;99853.98;;;-8.31;100.00
50867;BME280;36839;51.946;21.002;2022-11-20T06:53:23;99863.41;;;-8.23;100.00
50867;BME280;36839;51.946;21.002;2022-11-20T06:55:50;99864.09;;;-8.17;100.00
50867;BME280;36839;51.946;21.002;2022-11-20T06:58:19;99866.15;;;-8.11;100.00
50867;BME280;36839;51.946;21.002;2022-11-20T07:00:46;99856.77;;;-8.11;100.00
50867;BME280;36839;51.946;21.002;2022-11-20T07:03:13;99859.34;;;-8.01;100.00
50867;BME280;36839;51.946;21.002;2022-11-20T07:05:40;99859.34;;;-8.01;100.00
50867;BME280;36839;51.946;21.002;2022-11-20T07:08:06;99860.72;;;-7.93;100.00
50867;BME280;36839;51.946;21.002;2022-11-20T07:10:33;99865.12;;;-7.80;100.00
50867;BME280;36839;51.946;21.002;2022-11-20T07:13:00;99861.80;;;-7.74;100.00
50867;BME280;36839;51.946;21.002;2022-11-20T07:15:27;99857.14;;;-7.64;100.00
50867;BME280;36839;51.946;21.002;2022-11-20T07:17:53;99845.08;;;-7.60;100.00
50867;BME280;36839;51.946;21.002;2022-11-20T07:20:19;99849.66;;;-7.48;100.00
50867;BME280;36839;51.946;21.002;2022-11-20T07:22:45;99845.13;;;-7.43;100.00
50867;BME280;36839;51.946;21.002;2022-11-20T07:25:12;99853.20;;;-7.31;100.00
50867;BME280;36839;51.946;21.002;2022-11-20T07:27:38;99847.52;;;-7.24;100.00
50867;BME280;36839;51.946;21.002;2022-11-20T07:30:05;99847.52;;;-7.24;100.00
50867;BME280;36839;51.946;21.002;2022-11-20T07:32:33;99839.34;;;-7.10;100.00
50867;BME280;36839;51.946;21.002;2022-11-20T07:34:59;99839.34;;;-7.10;100.00
50867;BME280;36839;51.946;21.002;2022-11-20T07:37:25;99844.70;;;-6.98;100.00
50867;BME280;36839;51.946;21.002;2022-11-20T07:39:51;99840.52;;;-6.80;100.00
50867;BME280;36839;51.946;21.002;2022-11-20T07:42:18;99841.36;;;-6.72;100.00
50867;BME280;36839;51.946;21.002;2022-11-20T07:44:44;99844.19;;;-6.65;100.00
50867;BME280;36839;51.946;21.002;2022-11-20T07:47:10;99828.59;;;-6.62;100.00
50867;BME280;36839;51.946;21.002;2022-11-20T07:49:36;99830.24;;;-6.48;100.00
50867;BME280;36839;51.946;21.002;2022-11-20T07:52:03;99830.23;;;-6.40;100.00
50867;BME280;36839;51.946;21.002;2022-11-20T07:54:29;99830.38;;;-6.29;100.00
50867;BME280;36839;51.946;21.002;2022-11-20T07:56:55;99832.36;;;-6.19;100.00
50867;BME280;36839;51.946;21.002;2022-11-20T07:59:23;99838.38;;;-6.09;100.00
50867;BME280;36839;51.946;21.002;2022-11-20T08:01:50;99829.61;;;-5.99;100.00
50867;BME280;36839;51.946;21.002;2022-11-20T08:04:16;99832.27;;;-5.91;100.00
50867;BME280;36839;51.946;21.002;2022-11-20T08:06:42;99829.84;;;-5.82;100.00
50867;BME280;36839;51.946;21.002;2022-11-20T08:09:09;99825.13;;;-5.76;100.00
50867;BME280;36839;51.946;21.002;2022-11-20T08:11:37;99823.23;;;-5.67;100.00
50867;BME280;36839;51.946;21.002;2022-11-20T08:14:21;99826.88;;;-5.56;100.00
50867;BME280;36839;51.946;21.002;2022-11-20T08:16:49;99828.19;;;-5.48;100.00
50867;BME280;36839;51.946;21.002;2022-11-20T08:19:17;99824.58;;;-5.36;100.00
50867;BME280;36839;51.946;21.002;2022-11-20T08:21:44;99828.53;;;-5.24;100.00
50867;BME280;36839;51.946;21.002;2022-11-20T08:24:11;99823.75;;;-5.13;100.00
50867;BME280;36839;51.946;21.002;2022-11-20T08:26:39;99828.57;;;-5.05;100.00
50867;BME280;36839;51.946;21.002;2022-11-20T08:29:06;99827.31;;;-4.94;100.00
50867;BME280;36839;51.946;21.002;2022-11-20T08:31:33;99818.98;;;-4.84;100.00
50867;BME280;36839;51.946;21.002;2022-11-20T08:33:59;99817.25;;;-4.77;100.00
50867;BME280;36839;51.946;21.002;2022-11-20T08:36:26;99816.16;;;-4.68;100.00
50867;BME280;36839;51.946;21.002;2022-11-20T08:38:54;99813.92;;;-4.65;100.00
50867;BME280;36839;51.946;21.002;2022-11-20T08:41:21;99811.86;;;-4.58;100.00
50867;BME280;36839;51.946;21.002;2022-11-20T08:43:53;99807.56;;;-4.49;100.00
50867;BME280;36839;51.946;21.002;2022-11-20T08:46:20;99804.65;;;-4.43;100.00
50867;BME280;36839;51.946;21.002;2022-11-20T08:48:47;99800.98;;;-4.32;100.00
50867;BME280;36839;51.946;21.002;2022-11-20T08:51:14;99806.88;;;-4.17;100.00
50867;BME280;36839;51.946;21.002;2022-11-20T08:53:41;99806.88;;;-4.17;100.00
50867;BME280;36839;51.946;21.002;2022-11-20T08:56:07;99795.21;;;-3.99;100.00
50867;BME280;36839;51.946;21.002;2022-11-20T08:58:35;99797.88;;;-3.95;100.00
50867;BME280;36839;51.946;21.002;2022-11-20T09:01:03;99794.28;;;-3.91;100.00
50867;BME280;36839;51.946;21.002;2022-11-20T09:03:29;99800.55;;;-3.80;100.00
50867;BME280;36839;51.946;21.002;2022-11-20T09:06:01;99792.73;;;-3.75;100.00
50867;BME280;36839;51.946;21.002;2022-11-20T09:08:28;99793.79;;;-3.65;100.00
50867;BME280;36839;51.946;21.002;2022-11-20T09:10:57;99790.86;;;-3.60;100.00
50867;BME280;36839;51.946;21.002;2022-11-20T09:13:26;99785.91;;;-3.56;100.00
50867;BME280;36839;51.946;21.002;2022-11-20T09:16:00;99780.51;;;-3.56;100.00
50867;BME280;36839;51.946;21.002;2022-11-20T09:18:27;99776.20;;;-3.51;100.00
50867;BME280;36839;51.946;21.002;2022-11-20T09:20:59;99780.45;;;-3.41;100.00
50867;BME280;36839;51.946;21.002;2022-11-20T09:23:32;99779.66;;;-3.31;100.00
50867;BME280;36839;51.946;21.002;2022-11-20T09:26:05;99770.77;;;-3.25;100.00
50867;BME280;36839;51.946;21.002;2022-11-20T09:28:33;99768.86;;;-3.21;100.00
50867;BME280;36839;51.946;21.002;2022-11-20T09:31:04;99771.09;;;-3.24;100.00
50867;BME280;36839;51.946;21.002;2022-11-20T09:33:30;99767.19;;;-3.11;100.00
50867;BME280;36839;51.946;21.002;2022-11-20T09:35:58;99762.73;;;-3.08;100.00
50867;BME280;36839;51.946;21.002;2022-11-20T09:38:25;99764.02;;;-3.04;100.00
50867;BME280;36839;51.946;21.002;2022-11-20T09:40:56;99758.05;;;-2.99;100.00
50867;BME280;36839;51.946;21.002;2022-11-20T09:49:00;99765.62;;;-2.88;100.00
50867;BME280;36839;51.946;21.002;2022-11-20T09:54:20;99764.17;;;-2.63;100.00
50867;BME280;36839;51.946;21.002;2022-11-20T09:56:56;99755.98;;;-2.59;100.00
50867;BME280;36839;51.946;21.002;2022-11-20T09:59:43;99754.31;;;-2.60;100.00
50867;BME280;36839;51.946;21.002;2022-11-20T10:05:10;99747.20;;;-2.50;100.00
50867;BME280;36839;51.946;21.002;2022-11-20T10:08:10;99745.07;;;-2.44;100.00
50867;BME280;36839;51.946;21.002;2022-11-20T10:10:20;99745.07;;;-2.44;100.00
50867;BME280;36839;51.946;21.002;2022-11-20T10:15:42;99738.02;;;-2.21;100.00
50867;BME280;36839;51.946;21.002;2022-11-20T10:21:25;99736.31;;;-2.11;100.00
50867;BME280;36839;51.946;21.002;2022-11-20T10:24:14;99735.52;;;-2.05;100.00
50867;BME280;36839;51.946;21.002;2022-11-20T10:29:27;99714.91;;;-1.99;99.78
50867;BME280;36839;51.946;21.002;2022-11-20T10:31:54;99719.84;;;-1.92;99.24
50867;BME280;36839;51.946;21.002;2022-11-20T10:34:24;99713.84;;;-1.88;99.44
50867;BME280;36839;51.946;21.002;2022-11-20T10:36:56;99711.04;;;-1.84;99.14
50867;BME280;36839;51.946;21.002;2022-11-20T10:39:32;99711.04;;;-1.84;99.14
50867;BME280;36839;51.946;21.002;2022-11-20T10:41:57;99709.30;;;-1.74;98.85
50867;BME280;36839;51.946;21.002;2022-11-20T10:44:27;99715.27;;;-1.68;99.08
50867;BME280;36839;51.946;21.002;2022-11-20T10:47:17;99711.65;;;-1.58;99.27
50867;BME280;36839;51.946;21.002;2022-11-20T10:49:46;99711.78;;;-1.49;99.41
50867;BME280;36839;51.946;21.002;2022-11-20T10:58:17;99697.63;;;-1.37;98.73
50867;BME280;36839;51.946;21.002;2022-11-20T11:00:42;99697.63;;;-1.37;98.73
50867;BME280;36839;51.946;21.002;2022-11-20T11:06:08;99701.39;;;-1.25;97.91
50867;BME280;36839;51.946;21.002;2022-11-20T11:08:38;99702.45;;;-1.20;96.25
50867;BME280;36839;51.946;21.002;2022-11-20T11:11:29;99702.45;;;-1.20;96.25
50867;BME280;36839;51.946;21.002;2022-11-20T11:14:14;99709.77;;;-1.13;96.63
50867;BME280;36839;51.946;21.002;2022-11-20T11:16:48;99711.20;;;-1.04;96.15
50867;BME280;36839;51.946;21.002;2022-11-20T11:19:13;99715.28;;;-0.98;96.60
50867;BME280;36839;51.946;21.002;2022-11-20T11:21:54;99710.17;;;-0.97;95.92
50867;BME280;36839;51.946;21.002;2022-11-20T11:24:28;99704.75;;;-0.97;95.67
50867;BME280;36839;51.946;21.002;2022-11-20T11:26:58;99707.16;;;-0.91;95.59
50867;BME280;36839;51.946;21.002;2022-11-20T11:29:28;99701.31;;;-0.88;95.25
50867;BME280;36839;51.946;21.002;2022-11-20T11:32:20;99690.25;;;-0.87;95.18
50867;BME280;36839;51.946;21.002;2022-11-20T11:35:04;99697.66;;;-0.78;94.67
50867;BME280;36839;51.946;21.002;2022-11-20T11:37:36;99699.31;;;-0.77;94.03
50867;BME280;36839;51.946;21.002;2022-11-20T11:40:05;99699.31;;;-0.77;94.03
50867;BME280;36839;51.946;21.002;2022-11-20T11:42:35;99698.48;;;-0.71;93.88
50867;BME280;36839;51.946;21.002;2022-11-20T11:45:07;99686.91;;;-0.69;94.09
50867;BME280;36839;51.946;21.002;2022-11-20T11:47:47;99691.28;;;-0.61;93.94
50867;BME280;36839;51.946;21.002;2022-11-20T11:50:22;99679.17;;;-0.59;94.57
50867;BME280;36839;51.946;21.002;2022-11-20T11:55:34;99687.78;;;-0.33;96.93
50867;BME280;36839;51.946;21.002;2022-11-20T11:58:14;99680.87;;;-0.29;95.62
50867;BME280;36839;51.946;21.002;2022-11-20T12:00:39;99675.97;;;-0.29;94.77
50867;BME280;36839;51.946;21.002;2022-11-20T12:03:24;99677.84;;;-0.30;93.81
50867;BME280;36839;51.946;21.002;2022-11-20T12:06:01;99677.84;;;-0.30;93.81
50867;BME280;36839;51.946;21.002;2022-11-20T12:11:01;99672.68;;;-0.38;93.18
50867;BME280;36839;51.946;21.002;2022-11-20T12:16:02;99666.30;;;-0.41;92.59
50867;BME280;36839;51.946;21.002;2022-11-20T12:18:31;99658.16;;;-0.41;92.08
50867;BME280;36839;51.946;21.002;2022-11-20T12:21:03;99658.37;;;-0.42;92.29
50867;BME280;36839;51.946;21.002;2022-11-20T12:34:43;99638.08;;;-0.55;92.29
50867;BME280;36839;51.946;21.002;2022-11-20T12:37:30;99643.69;;;-0.57;92.03
50867;BME280;36839;51.946;21.002;2022-11-20T12:39:56;99644.03;;;-0.56;91.84
50867;BME280;36839;51.946;21.002;2022-11-20T12:51:16;99624.09;;;-0.59;91.22
50867;BME280;36839;51.946;21.002;2022-11-20T12:56:43;99617.31;;;-0.59;91.43
50867;BME280;36839;51.946;21.002;2022-11-20T12:59:33;99617.31;;;-0.59;91.43
50867;BME280;36839;51.946;21.002;2022-11-20T13:01:58;99623.16;;;-0.55;91.21
50867;BME280;36839;51.946;21.002;2022-11-20T13:07:00;99615.34;;;1.01;100.00
50867;BME280;36839;51.946;21.002;2022-11-20T13:09:29;99615.34;;;1.01;100.00
50867;BME280;36839;51.946;21.002;2022-11-20T13:17:28;99606.20;;;0.54;86.97
50867;BME280;36839;51.946;21.002;2022-11-20T13:19:55;99606.20;;;0.54;86.97
50867;BME280;36839;51.946;21.002;2022-11-20T13:22:45;99605.64;;;0.14;87.89
50867;BME280;36839;51.946;21.002;2022-11-20T13:25:31;99594.97;;;-0.03;88.14
50867;BME280;36839;51.946;21.002;2022-11-20T13:28:04;99593.61;;;-0.19;88.22
50867;BME280;36839;51.946;21.002;2022-11-20T13:30:30;99594.90;;;-0.28;88.53
50867;BME280;36839;51.946;21.002;2022-11-20T13:33:09;99596.19;;;-0.37;88.69
50867;BME280;36839;51.946;21.002;2022-11-20T13:35:53;99596.19;;;-0.37;88.69
50867;BME280;36839;51.946;21.002;2022-11-20T13:38:14;99591.83;;;-0.45;89.04
50867;BME280;36839;51.946;21.002;2022-11-20T13:40:56;99592.36;;;-0.52;89.56
50867;BME280;36839;51.946;21.002;2022-11-20T13:46:06;99593.56;;;-0.64;90.21
50867;BME280;36839;51.946;21.002;2022-11-20T13:48:44;99596.41;;;-0.74;90.97
50867;BME280;36839;51.946;21.002;2022-11-20T13:56:59;99580.06;;;-0.97;91.11
50867;BME280;36839;51.946;21.002;2022-11-20T13:59:43;99583.52;;;-0.99;91.47
50867;BME280;36839;51.946;21.002;2022-11-20T14:02:16;99584.03;;;-0.99;92.83
50867;BME280;36839;51.946;21.002;2022-11-20T14:04:45;99575.29;;;-1.08;92.19
50867;BME280;36839;51.946;21.002;2022-11-20T14:07:14;99575.29;;;-1.08;92.19
50867;BME280;36839;51.946;21.002;2022-11-20T14:09:50;99581.76;;;-1.16;92.18
50867;BME280;36839;51.946;21.002;2022-11-20T14:12:20;99578.55;;;-1.22;92.18
50867;BME280;36839;51.946;21.002;2022-11-20T14:14:49;99576.79;;;-1.32;92.32
50867;BME280;36839;51.946;21.002;2022-11-20T14:17:20;99577.21;;;-1.41;92.31
50867;BME280;36839;51.946;21.002;2022-11-20T14:19:52;99573.22;;;-1.52;92.52
50867;BME280;36839;51.946;21.002;2022-11-20T14:22:23;99562.52;;;-1.69;93.82
50867;BME280;36839;51.946;21.002;2022-11-20T14:27:47;99563.50;;;-1.90;96.58
50867;BME280;36839;51.946;21.002;2022-11-20T14:30:19;99569.31;;;-2.00;97.58